createdAt,value
2022-08-26T17:49:15.515Z,23.05
2022-08-26T17:51:42.175Z,23.00
2022-08-26T17:54:09.259Z,22.95
2022-08-26T17:56:46.237Z,22.90
2022-08-26T17:59:17.069Z,22.86
2022-08-26T18:01:44.744Z,22.81
2022-08-26T18:04:12.063Z,22.79
2022-08-26T18:06:40.083Z,22.75
2022-08-26T18:09:06.876Z,22.70
2022-08-26T18:11:37.056Z,22.65
2022-08-26T18:14:03.956Z,22.60
2022-08-26T18:16:34.182Z,22.54
2022-08-26T18:19:01.053Z,22.45
2022-08-26T18:21:28.059Z,22.38
2022-08-26T18:23:55.059Z,22.32
2022-08-26T18:26:27.280Z,22.27
2022-08-26T18:28:54.375Z,22.21
2022-08-26T18:31:21.478Z,22.13
2022-08-26T18:33:56.659Z,22.05
2022-08-26T18:36:29.530Z,21.98
2022-08-26T18:38:57.515Z,21.91
2022-08-26T18:41:28.270Z,21.88
2022-08-26T18:43:55.844Z,21.81
2022-08-26T18:46:25.314Z,21.75
2022-08-26T18:48:57.314Z,21.68
2022-08-26T18:51:26.651Z,21.63
2022-08-26T18:53:53.722Z,21.59
2022-08-26T18:56:20.425Z,21.57
2022-08-26T18:58:47.799Z,21.53
2022-08-26T19:01:16.202Z,21.48
2022-08-26T19:03:43.308Z,21.44
2022-08-26T19:06:15.416Z,21.42
2022-08-26T19:08:44.569Z,21.40
2022-08-26T19:11:12.884Z,21.32
2022-08-26T19:13:42.842Z,21.16
2022-08-26T19:16:23.441Z,20.99
2022-08-26T19:18:51.651Z,20.90
2022-08-26T19:21:19.548Z,20.82
2022-08-26T19:23:46.349Z,20.66
2022-08-26T19:26:13.843Z,20.48
2022-08-26T19:28:41.508Z,20.28
2022-08-26T19:31:12.194Z,20.17
2022-08-26T19:33:41.870Z,20.08
2022-08-26T19:36:15.056Z,20.06
2022-08-26T19:38:42.921Z,20.08
2022-08-26T19:41:14.830Z,20.07
2022-08-26T19:43:42.443Z,20.05
2022-08-26T19:46:11.340Z,20.05
2022-08-26T19:48:38.048Z,20.05
2022-08-26T19:51:04.843Z,20.00
2022-08-26T19:53:35.168Z,19.99
2022-08-26T19:56:01.746Z,20.02
2022-08-26T19:58:28.573Z,20.01
2022-08-26T20:00:55.491Z,20.01
2022-08-26T20:03:23.275Z,20.00
2022-08-26T20:05:49.989Z,20.01
2022-08-26T20:08:21.972Z,20.01
2022-08-26T20:10:50.109Z,20.03
2022-08-26T20:13:18.813Z,20.06
2022-08-26T20:15:45.414Z,20.09
2022-08-26T20:18:32.395Z,20.08
2022-08-26T20:21:39.041Z,20.08
2022-08-26T20:24:09.190Z,20.13
2022-08-26T20:26:38.992Z,20.16
2022-08-26T20:29:07.054Z,20.18
2022-08-26T20:31:36.963Z,20.19
2022-08-26T20:34:05.318Z,20.19
2022-08-26T20:36:32.622Z,20.17
2022-08-26T20:39:01.138Z,20.11
2022-08-26T20:41:28.654Z,20.09
2022-08-26T20:43:56.347Z,20.03
2022-08-26T20:46:25.041Z,20.00
2022-08-26T20:48:53.706Z,19.98
2022-08-26T20:51:22.934Z,19.96
2022-08-26T20:53:52.482Z,19.90
2022-08-26T20:56:24.881Z,19.87
2022-08-26T20:58:53.577Z,19.85
2022-08-26T21:01:24.105Z,19.82
2022-08-26T21:03:53.927Z,19.81
2022-08-26T21:06:25.365Z,19.81
2022-08-26T21:08:52.955Z,19.83
2022-08-26T21:11:19.947Z,19.82
2022-08-26T21:14:04.310Z,19.84
2022-08-26T21:16:31.546Z,19.85
2022-08-26T21:19:04.521Z,19.82
2022-08-26T21:21:31.586Z,19.79
2022-08-26T21:23:58.316Z,19.75
2022-08-26T21:26:26.818Z,19.72
2022-08-26T21:28:53.827Z,19.72
2022-08-26T21:31:22.683Z,19.71
2022-08-26T21:33:58.346Z,19.71
2022-08-26T21:36:25.078Z,19.73
2022-08-26T21:38:51.632Z,19.68
2022-08-26T21:41:21.457Z,19.67
2022-08-26T21:43:50.097Z,19.68
2022-08-26T21:46:19.683Z,19.65
2022-08-26T21:48:57.653Z,19.63
2022-08-26T21:51:26.917Z,19.62
2022-08-26T21:53:55.669Z,19.62
2022-08-26T21:56:24.837Z,19.62
2022-08-26T21:58:52.469Z,19.59
2022-08-26T22:01:21.690Z,19.57
2022-08-26T22:03:51.450Z,19.57
2022-08-26T22:06:21.933Z,19.55
2022-08-26T22:08:50.735Z,19.55
2022-08-26T22:11:18.945Z,19.51
2022-08-26T22:13:47.349Z,19.47
2022-08-26T22:16:15.155Z,19.46
2022-08-26T22:18:45.959Z,19.43
2022-08-26T22:21:20.867Z,19.40
2022-08-26T22:23:47.985Z,19.36
2022-08-26T22:26:25.441Z,19.31
2022-08-26T22:28:58.615Z,19.25
2022-08-26T22:31:29.008Z,19.23
2022-08-26T22:34:12.237Z,19.22
2022-08-26T22:36:44.224Z,19.17
2022-08-26T22:39:18.396Z,19.12
2022-08-26T22:41:45.323Z,19.07
2022-08-26T22:44:12.166Z,19.01
2022-08-26T22:46:41.437Z,18.97
2022-08-26T22:49:10.054Z,18.95
2022-08-26T22:51:36.787Z,18.89
2022-08-26T22:54:10.386Z,18.85
2022-08-26T22:56:39.064Z,18.87
2022-08-26T22:59:07.820Z,18.84
2022-08-26T23:01:36.952Z,18.85
2022-08-26T23:04:04.933Z,18.84
2022-08-26T23:06:31.463Z,18.84
2022-08-26T23:09:06.733Z,18.80
2022-08-26T23:11:34.053Z,18.79
2022-08-26T23:14:02.849Z,18.79
2022-08-26T23:16:39.743Z,18.80
2022-08-26T23:19:10.986Z,18.79
2022-08-26T23:21:38.750Z,18.78
2022-08-26T23:24:07.467Z,18.76
2022-08-26T23:26:35.476Z,18.77
2022-08-26T23:29:02.701Z,18.77
2022-08-26T23:31:31.352Z,18.77
2022-08-26T23:34:16.427Z,18.76
2022-08-26T23:36:44.134Z,18.77
2022-08-26T23:39:13.454Z,18.78
2022-08-26T23:41:40.089Z,18.78
2022-08-26T23:44:15.213Z,18.74
2022-08-26T23:46:41.783Z,18.69
2022-08-26T23:49:08.358Z,18.70
2022-08-26T23:52:07.242Z,18.71
2022-08-26T23:54:34.061Z,18.73
2022-08-26T23:57:00.657Z,18.66
2022-08-26T23:59:35.270Z,18.61
